Oakwood, Georgia
Current Conditions -  °F | °C
As of 11:19 PM on Sunday 23 Nov 2014 (Local Time) from KGVL Reporting Station
Haze Haze  
Wind Chill: 53°   Ceiling: 200
Heat Index: 53°   Visibility: 0.75mi
Dew Point: 53°   Wind: 6mph
Humidity: 100%   Direction: 180°S
Pressure: 29.77"   Gusts: NA
Location:  34.23°N, 83.88°W
Report Text: KGVL 240419Z AUTO 18005KT 3/4SM BR BKN002 OVC036 12/12 A2977 RMK AO2 T01170117
Loading
Personal Weather Stations






























Interactive Weather Map New forecast layout! Learn more

10-Day Weather Forecast

Advertisements
Track Severe Weather on mobile